Eureka Center, Wisconsin
Current Conditions -  °F | °C
As of 6:55 PM on Saturday 20 Dec 2014 (Local Time) from KOEO Reporting Station
Overcast Overcast  
Wind Chill: 24°   Ceiling: 1400
Heat Index: 32°   Visibility: 7mi
Dew Point: 31°   Wind: 9mph
Humidity: 98%   Direction: 140°SE
Pressure: 30.14"   Gusts: NA
Location:  45.4182°N, 92.6295°W
Report Text: KOEO 210055Z AUTO 14008KT 7SM OVC014 00/00 A3014 RMK AO2 T00001003
Loading
Personal Weather Stations






























Interactive Weather Map New forecast layout! Learn more

10-Day Weather Forecast

Advertisements
Track Severe Weather on mobile